sensor_id;sensor_type;location;lat;lon;timestamp;temperature;humidity
2300;DHT22;1158;48.750;9.078;2022-08-25T00:01:10;15.20;99.90
2300;DHT22;1158;48.750;9.078;2022-08-25T00:03:39;15.20;99.90
2300;DHT22;1158;48.750;9.078;2022-08-25T00:06:07;15.10;99.90
2300;DHT22;1158;48.750;9.078;2022-08-25T00:08:35;15.10;99.90
2300;DHT22;1158;48.750;9.078;2022-08-25T00:11:03;15.00;99.90
2300;DHT22;1158;48.750;9.078;2022-08-25T00:13:31;15.00;99.90
2300;DHT22;1158;48.750;9.078;2022-08-25T00:15:58;15.00;99.90
2300;DHT22;1158;48.750;9.078;2022-08-25T00:18:25;15.00;99.90
2300;DHT22;1158;48.750;9.078;2022-08-25T00:20:54;14.90;99.90
2300;DHT22;1158;48.750;9.078;2022-08-25T00:23:20;14.90;99.90
2300;DHT22;1158;48.750;9.078;2022-08-25T00:25:47;15.00;99.90
2300;DHT22;1158;48.750;9.078;2022-08-25T00:28:15;15.00;99.90
2300;DHT22;1158;48.750;9.078;2022-08-25T00:30:43;14.90;99.90
2300;DHT22;1158;48.750;9.078;2022-08-25T00:33:09;14.90;99.90
2300;DHT22;1158;48.750;9.078;2022-08-25T00:35:36;14.90;99.90
2300;DHT22;1158;48.750;9.078;2022-08-25T00:38:05;14.90;99.90
2300;DHT22;1158;48.750;9.078;2022-08-25T00:40:32;14.90;99.90
2300;DHT22;1158;48.750;9.078;2022-08-25T00:42:59;14.90;99.90
2300;DHT22;1158;48.750;9.078;2022-08-25T00:45:26;14.90;99.90
2300;DHT22;1158;48.750;9.078;2022-08-25T00:47:53;14.90;99.90
2300;DHT22;1158;48.750;9.078;2022-08-25T00:50:21;14.90;99.90
2300;DHT22;1158;48.750;9.078;2022-08-25T00:52:51;14.80;99.90
2300;DHT22;1158;48.750;9.078;2022-08-25T00:55:24;14.80;99.90
2300;DHT22;1158;48.750;9.078;2022-08-25T00:57:55;14.70;99.90
2300;DHT22;1158;48.750;9.078;2022-08-25T01:00:27;14.70;99.90
2300;DHT22;1158;48.750;9.078;2022-08-25T01:02:54;14.70;99.90
2300;DHT22;1158;48.750;9.078;2022-08-25T01:05:22;14.60;99.90
2300;DHT22;1158;48.750;9.078;2022-08-25T01:07:50;14.60;99.90
2300;DHT22;1158;48.750;9.078;2022-08-25T01:10:18;14.60;99.90
2300;DHT22;1158;48.750;9.078;2022-08-25T01:12:48;14.60;99.90
2300;DHT22;1158;48.750;9.078;2022-08-25T01:15:16;14.50;99.90
2300;DHT22;1158;48.750;9.078;2022-08-25T01:17:46;14.50;99.90
2300;DHT22;1158;48.750;9.078;2022-08-25T01:20:13;14.50;99.90
2300;DHT22;1158;48.750;9.078;2022-08-25T01:22:42;14.50;99.90
2300;DHT22;1158;48.750;9.078;2022-08-25T01:25:19;14.50;99.90
2300;DHT22;1158;48.750;9.078;2022-08-25T01:27:47;14.50;99.90
2300;DHT22;1158;48.750;9.078;2022-08-25T01:30:14;14.50;99.90
2300;DHT22;1158;48.750;9.078;2022-08-25T01:32:41;14.40;99.90
2300;DHT22;1158;48.750;9.078;2022-08-25T01:35:08;14.30;99.90
2300;DHT22;1158;48.750;9.078;2022-08-25T01:37:35;14.30;99.90
2300;DHT22;1158;48.750;9.078;2022-08-25T01:40:04;14.20;99.90
2300;DHT22;1158;48.750;9.078;2022-08-25T01:42:41;14.20;99.90
2300;DHT22;1158;48.750;9.078;2022-08-25T01:45:08;14.10;99.90
2300;DHT22;1158;48.750;9.078;2022-08-25T01:47:36;14.10;99.90
2300;DHT22;1158;48.750;9.078;2022-08-25T01:50:04;14.00;99.90
2300;DHT22;1158;48.750;9.078;2022-08-25T01:52:33;14.10;99.90
2300;DHT22;1158;48.750;9.078;2022-08-25T01:55:04;14.10;99.90
2300;DHT22;1158;48.750;9.078;2022-08-25T01:57:31;14.10;99.90
2300;DHT22;1158;48.750;9.078;2022-08-25T01:59:58;14.00;99.90
2300;DHT22;1158;48.750;9.078;2022-08-25T02:02:26;14.00;99.90
2300;DHT22;1158;48.750;9.078;2022-08-25T02:04:52;13.90;99.90
2300;DHT22;1158;48.750;9.078;2022-08-25T02:07:19;13.90;99.90
2300;DHT22;1158;48.750;9.078;2022-08-25T02:09:46;13.80;99.90
2300;DHT22;1158;48.750;9.078;2022-08-25T02:12:14;13.80;99.90
2300;DHT22;1158;48.750;9.078;2022-08-25T02:14:41;13.80;99.90
2300;DHT22;1158;48.750;9.078;2022-08-25T02:17:08;13.70;99.90
2300;DHT22;1158;48.750;9.078;2022-08-25T02:19:35;13.70;99.90
2300;DHT22;1158;48.750;9.078;2022-08-25T02:22:02;13.70;99.90
2300;DHT22;1158;48.750;9.078;2022-08-25T02:24:29;13.70;99.90
2300;DHT22;1158;48.750;9.078;2022-08-25T02:26:56;13.70;99.90
2300;DHT22;1158;48.750;9.078;2022-08-25T02:29:25;13.70;99.90
2300;DHT22;1158;48.750;9.078;2022-08-25T02:31:51;13.60;99.90
2300;DHT22;1158;48.750;9.078;2022-08-25T02:34:18;13.60;99.90
2300;DHT22;1158;48.750;9.078;2022-08-25T02:36:45;13.60;99.90
2300;DHT22;1158;48.750;9.078;2022-08-25T02:39:12;13.60;99.90
2300;DHT22;1158;48.750;9.078;2022-08-25T02:41:38;13.50;99.90
2300;DHT22;1158;48.750;9.078;2022-08-25T02:44:06;13.50;99.90
2300;DHT22;1158;48.750;9.078;2022-08-25T02:46:35;13.40;99.90
2300;DHT22;1158;48.750;9.078;2022-08-25T02:49:03;13.40;99.90
2300;DHT22;1158;48.750;9.078;2022-08-25T02:51:30;13.40;99.90
2300;DHT22;1158;48.750;9.078;2022-08-25T02:53:59;13.40;99.90
2300;DHT22;1158;48.750;9.078;2022-08-25T02:56:28;13.40;99.90
2300;DHT22;1158;48.750;9.078;2022-08-25T02:58:55;13.30;99.90
2300;DHT22;1158;48.750;9.078;2022-08-25T03:01:22;13.40;99.90
2300;DHT22;1158;48.750;9.078;2022-08-25T03:03:50;13.40;99.90
2300;DHT22;1158;48.750;9.078;2022-08-25T03:06:20;13.30;99.90
2300;DHT22;1158;48.750;9.078;2022-08-25T03:08:48;13.30;99.90
2300;DHT22;1158;48.750;9.078;2022-08-25T03:11:16;13.20;99.90
2300;DHT22;1158;48.750;9.078;2022-08-25T03:13:43;13.20;99.90
2300;DHT22;1158;48.750;9.078;2022-08-25T03:16:09;13.20;99.90
2300;DHT22;1158;48.750;9.078;2022-08-25T03:18:37;13.20;99.90
2300;DHT22;1158;48.750;9.078;2022-08-25T03:21:05;13.20;99.90
2300;DHT22;1158;48.750;9.078;2022-08-25T03:23:32;13.20;99.90
2300;DHT22;1158;48.750;9.078;2022-08-25T03:25:59;13.10;99.90
2300;DHT22;1158;48.750;9.078;2022-08-25T03:28:43;13.10;99.90
2300;DHT22;1158;48.750;9.078;2022-08-25T03:31:10;13.10;99.90
2300;DHT22;1158;48.750;9.078;2022-08-25T03:33:37;13.00;99.90
2300;DHT22;1158;48.750;9.078;2022-08-25T03:36:06;12.90;99.90
2300;DHT22;1158;48.750;9.078;2022-08-25T03:38:33;12.90;99.90
2300;DHT22;1158;48.750;9.078;2022-08-25T03:41:01;12.90;99.90
2300;DHT22;1158;48.750;9.078;2022-08-25T03:43:27;12.90;99.90
2300;DHT22;1158;48.750;9.078;2022-08-25T03:45:54;12.90;99.90
2300;DHT22;1158;48.750;9.078;2022-08-25T03:48:21;12.90;99.90
2300;DHT22;1158;48.750;9.078;2022-08-25T03:50:50;12.90;99.90
2300;DHT22;1158;48.750;9.078;2022-08-25T03:53:20;12.90;99.90
2300;DHT22;1158;48.750;9.078;2022-08-25T03:55:47;12.80;99.90
2300;DHT22;1158;48.750;9.078;2022-08-25T03:58:14;12.80;99.90
2300;DHT22;1158;48.750;9.078;2022-08-25T04:00:42;12.80;99.90
2300;DHT22;1158;48.750;9.078;2022-08-25T04:03:09;12.70;99.90
2300;DHT22;1158;48.750;9.078;2022-08-25T04:05:35;12.70;99.90
2300;DHT22;1158;48.750;9.078;2022-08-25T04:08:02;12.80;99.90
2300;DHT22;1158;48.750;9.078;2022-08-25T04:10:30;12.80;99.90
2300;DHT22;1158;48.750;9.078;2022-08-25T04:12:58;12.70;99.90
2300;DHT22;1158;48.750;9.078;2022-08-25T04:15:26;12.70;99.90
2300;DHT22;1158;48.750;9.078;2022-08-25T04:17:53;12.70;99.90
2300;DHT22;1158;48.750;9.078;2022-08-25T04:20:20;12.70;99.90
2300;DHT22;1158;48.750;9.078;2022-08-25T04:22:46;12.70;99.90
2300;DHT22;1158;48.750;9.078;2022-08-25T04:25:13;12.70;99.90
2300;DHT22;1158;48.750;9.078;2022-08-25T04:27:41;12.70;99.90
2300;DHT22;1158;48.750;9.078;2022-08-25T04:30:09;12.60;99.90
2300;DHT22;1158;48.750;9.078;2022-08-25T04:32:36;12.60;99.90
2300;DHT22;1158;48.750;9.078;2022-08-25T04:35:03;12.60;99.90
2300;DHT22;1158;48.750;9.078;2022-08-25T04:37:30;12.60;99.90
2300;DHT22;1158;48.750;9.078;2022-08-25T04:39:57;12.60;99.90
2300;DHT22;1158;48.750;9.078;2022-08-25T04:42:24;12.60;99.90
2300;DHT22;1158;48.750;9.078;2022-08-25T04:44:52;12.60;99.90
2300;DHT22;1158;48.750;9.078;2022-08-25T04:47:20;12.60;99.90
2300;DHT22;1158;48.750;9.078;2022-08-25T04:49:46;12.60;99.90
2300;DHT22;1158;48.750;9.078;2022-08-25T04:52:13;12.60;99.90
2300;DHT22;1158;48.750;9.078;2022-08-25T04:54:40;12.60;99.90
2300;DHT22;1158;48.750;9.078;2022-08-25T04:57:07;12.70;99.90
2300;DHT22;1158;48.750;9.078;2022-08-25T04:59:34;12.70;99.90
2300;DHT22;1158;48.750;9.078;2022-08-25T05:02:02;12.70;99.90
2300;DHT22;1158;48.750;9.078;2022-08-25T05:04:32;12.80;99.90
2300;DHT22;1158;48.750;9.078;2022-08-25T05:06:59;12.80;99.90
2300;DHT22;1158;48.750;9.078;2022-08-25T05:09:26;12.80;99.90
2300;DHT22;1158;48.750;9.078;2022-08-25T05:11:54;12.90;99.90
2300;DHT22;1158;48.750;9.078;2022-08-25T05:14:20;13.00;99.90
2300;DHT22;1158;48.750;9.078;2022-08-25T05:16:47;13.00;99.90
2300;DHT22;1158;48.750;9.078;2022-08-25T05:19:16;13.10;99.90
2300;DHT22;1158;48.750;9.078;2022-08-25T05:21:43;13.10;99.90
2300;DHT22;1158;48.750;9.078;2022-08-25T05:24:09;13.30;99.90
2300;DHT22;1158;48.750;9.078;2022-08-25T05:26:36;13.40;99.90
2300;DHT22;1158;48.750;9.078;2022-08-25T05:29:03;13.80;99.90
2300;DHT22;1158;48.750;9.078;2022-08-25T05:31:31;15.00;99.90
2300;DHT22;1158;48.750;9.078;2022-08-25T05:33:58;16.10;99.90
2300;DHT22;1158;48.750;9.078;2022-08-25T05:36:27;17.50;99.90
2300;DHT22;1158;48.750;9.078;2022-08-25T05:38:54;18.90;99.90
2300;DHT22;1158;48.750;9.078;2022-08-25T05:41:26;19.80;99.90
2300;DHT22;1158;48.750;9.078;2022-08-25T05:43:53;20.60;99.90
2300;DHT22;1158;48.750;9.078;2022-08-25T05:46:21;20.90;99.90
2300;DHT22;1158;48.750;9.078;2022-08-25T05:48:48;21.60;99.90
2300;DHT22;1158;48.750;9.078;2022-08-25T05:51:16;21.60;99.90
2300;DHT22;1158;48.750;9.078;2022-08-25T05:53:46;22.10;99.90
2300;DHT22;1158;48.750;9.078;2022-08-25T05:56:13;22.60;99.90
2300;DHT22;1158;48.750;9.078;2022-08-25T05:58:41;23.40;99.90
2300;DHT22;1158;48.750;9.078;2022-08-25T06:01:09;24.30;99.90
2300;DHT22;1158;48.750;9.078;2022-08-25T06:03:53;25.00;99.90
2300;DHT22;1158;48.750;9.078;2022-08-25T06:06:20;25.40;99.90
2300;DHT22;1158;48.750;9.078;2022-08-25T06:08:50;26.00;99.90
2300;DHT22;1158;48.750;9.078;2022-08-25T06:11:17;26.50;99.90
2300;DHT22;1158;48.750;9.078;2022-08-25T06:13:44;26.40;99.90
2300;DHT22;1158;48.750;9.078;2022-08-25T06:16:10;26.50;99.90
2300;DHT22;1158;48.750;9.078;2022-08-25T06:18:37;27.10;99.90
2300;DHT22;1158;48.750;9.078;2022-08-25T06:21:09;27.80;99.90
2300;DHT22;1158;48.750;9.078;2022-08-25T06:23:37;28.20;99.90
2300;DHT22;1158;48.750;9.078;2022-08-25T06:26:09;28.60;99.90
2300;DHT22;1158;48.750;9.078;2022-08-25T06:28:36;29.10;99.90
2300;DHT22;1158;48.750;9.078;2022-08-25T06:31:02;29.10;99.90
2300;DHT22;1158;48.750;9.078;2022-08-25T06:33:29;28.60;99.90
2300;DHT22;1158;48.750;9.078;2022-08-25T06:35:57;29.20;99.90
2300;DHT22;1158;48.750;9.078;2022-08-25T06:38:24;29.90;99.70
2300;DHT22;1158;48.750;9.078;2022-08-25T06:40:51;29.50;99.90
2300;DHT22;1158;48.750;9.078;2022-08-25T06:43:20;29.30;99.80
2300;DHT22;1158;48.750;9.078;2022-08-25T06:45:47;28.80;99.90
2300;DHT22;1158;48.750;9.078;2022-08-25T06:48:14;28.50;99.90
2300;DHT22;1158;48.750;9.078;2022-08-25T06:50:42;29.00;99.90
2300;DHT22;1158;48.750;9.078;2022-08-25T06:53:09;28.90;99.90
2300;DHT22;1158;48.750;9.078;2022-08-25T06:55:36;28.50;99.90
2300;DHT22;1158;48.750;9.078;2022-08-25T06:58:04;28.50;99.90
2300;DHT22;1158;48.750;9.078;2022-08-25T07:00:32;28.40;99.90
2300;DHT22;1158;48.750;9.078;2022-08-25T07:02:59;28.00;99.90
2300;DHT22;1158;48.750;9.078;2022-08-25T07:05:26;27.80;99.90
2300;DHT22;1158;48.750;9.078;2022-08-25T07:07:53;28.20;99.90
2300;DHT22;1158;48.750;9.078;2022-08-25T07:10:20;28.90;99.90
2300;DHT22;1158;48.750;9.078;2022-08-25T07:12:47;29.10;99.90
2300;DHT22;1158;48.750;9.078;2022-08-25T07:15:13;29.70;99.80
2300;DHT22;1158;48.750;9.078;2022-08-25T07:17:41;30.40;99.10
2300;DHT22;1158;48.750;9.078;2022-08-25T07:20:08;30.70;98.10
2300;DHT22;1158;48.750;9.078;2022-08-25T07:22:35;29.90;98.30
2300;DHT22;1158;48.750;9.078;2022-08-25T07:25:03;29.90;98.60
2300;DHT22;1158;48.750;9.078;2022-08-25T07:27:30;30.10;98.50
2300;DHT22;1158;48.750;9.078;2022-08-25T07:29:56;30.30;98.10
2300;DHT22;1158;48.750;9.078;2022-08-25T07:32:23;30.50;98.00
2300;DHT22;1158;48.750;9.078;2022-08-25T07:34:51;31.10;97.10
2300;DHT22;1158;48.750;9.078;2022-08-25T07:37:37;31.00;96.30
2300;DHT22;1158;48.750;9.078;2022-08-25T07:40:05;30.40;96.80
2300;DHT22;1158;48.750;9.078;2022-08-25T07:42:32;29.60;97.60
2300;DHT22;1158;48.750;9.078;2022-08-25T07:45:00;29.50;98.10
2300;DHT22;1158;48.750;9.078;2022-08-25T07:47:27;29.60;97.90
2300;DHT22;1158;48.750;9.078;2022-08-25T07:49:55;29.40;98.40
2300;DHT22;1158;48.750;9.078;2022-08-25T07:52:22;29.30;98.40
2300;DHT22;1158;48.750;9.078;2022-08-25T07:54:48;29.50;97.80
2300;DHT22;1158;48.750;9.078;2022-08-25T07:57:18;29.80;97.30
2300;DHT22;1158;48.750;9.078;2022-08-25T07:59:47;28.70;98.10
2300;DHT22;1158;48.750;9.078;2022-08-25T08:02:14;28.30;99.30
2300;DHT22;1158;48.750;9.078;2022-08-25T08:04:40;28.50;99.50
2300;DHT22;1158;48.750;9.078;2022-08-25T08:07:08;28.60;98.60
2300;DHT22;1158;48.750;9.078;2022-08-25T08:09:35;28.50;99.20
2300;DHT22;1158;48.750;9.078;2022-08-25T08:12:02;28.90;99.40
2300;DHT22;1158;48.750;9.078;2022-08-25T08:14:29;29.40;98.50
2300;DHT22;1158;48.750;9.078;2022-08-25T08:16:56;29.60;97.30
2300;DHT22;1158;48.750;9.078;2022-08-25T08:19:23;29.90;97.50
2300;DHT22;1158;48.750;9.078;2022-08-25T08:21:49;30.40;96.40
2300;DHT22;1158;48.750;9.078;2022-08-25T08:24:18;30.50;96.50
2300;DHT22;1158;48.750;9.078;2022-08-25T08:26:45;30.10;96.70
2300;DHT22;1158;48.750;9.078;2022-08-25T08:29:11;30.00;96.50
2300;DHT22;1158;48.750;9.078;2022-08-25T08:31:39;30.10;96.50
2300;DHT22;1158;48.750;9.078;2022-08-25T08:34:06;29.90;96.80
2300;DHT22;1158;48.750;9.078;2022-08-25T08:36:33;29.70;96.40
2300;DHT22;1158;48.750;9.078;2022-08-25T08:39:00;29.40;97.20
2300;DHT22;1158;48.750;9.078;2022-08-25T08:41:48;29.50;96.90
2300;DHT22;1158;48.750;9.078;2022-08-25T08:44:44;29.50;97.00
2300;DHT22;1158;48.750;9.078;2022-08-25T08:47:19;29.50;96.80
2300;DHT22;1158;48.750;9.078;2022-08-25T08:49:57;29.60;96.80
2300;DHT22;1158;48.750;9.078;2022-08-25T08:52:35;29.30;97.00
2300;DHT22;1158;48.750;9.078;2022-08-25T08:55:10;29.40;96.70
2300;DHT22;1158;48.750;9.078;2022-08-25T08:57:45;29.10;96.70
2300;DHT22;1158;48.750;9.078;2022-08-25T09:00:14;29.40;96.60
2300;DHT22;1158;48.750;9.078;2022-08-25T09:02:47;29.60;96.40
2300;DHT22;1158;48.750;9.078;2022-08-25T09:05:16;30.40;95.40
2300;DHT22;1158;48.750;9.078;2022-08-25T09:07:48;30.30;95.20
2300;DHT22;1158;48.750;9.078;2022-08-25T09:10:17;30.40;95.00
2300;DHT22;1158;48.750;9.078;2022-08-25T09:12:51;30.10;95.40
2300;DHT22;1158;48.750;9.078;2022-08-25T09:15:32;29.60;96.20
2300;DHT22;1158;48.750;9.078;2022-08-25T09:18:22;30.20;95.60
2300;DHT22;1158;48.750;9.078;2022-08-25T09:21:01;30.60;95.20
2300;DHT22;1158;48.750;9.078;2022-08-25T09:23:36;30.20;94.80
2300;DHT22;1158;48.750;9.078;2022-08-25T09:26:19;30.20;95.20
2300;DHT22;1158;48.750;9.078;2022-08-25T09:28:51;29.80;95.40
2300;DHT22;1158;48.750;9.078;2022-08-25T09:31:23;29.90;95.00
2300;DHT22;1158;48.750;9.078;2022-08-25T09:33:52;30.60;95.00
2300;DHT22;1158;48.750;9.078;2022-08-25T09:36:21;31.30;93.10
2300;DHT22;1158;48.750;9.078;2022-08-25T09:38:48;31.80;92.90
2300;DHT22;1158;48.750;9.078;2022-08-25T09:41:16;31.90;92.60
2300;DHT22;1158;48.750;9.078;2022-08-25T09:43:50;32.20;92.60
2300;DHT22;1158;48.750;9.078;2022-08-25T09:46:25;31.70;92.90
2300;DHT22;1158;48.750;9.078;2022-08-25T09:48:53;31.60;92.90
2300;DHT22;1158;48.750;9.078;2022-08-25T09:51:24;31.80;91.90
2300;DHT22;1158;48.750;9.078;2022-08-25T09:53:54;31.70;91.60
2300;DHT22;1158;48.750;9.078;2022-08-25T09:56:24;32.00;91.80
2300;DHT22;1158;48.750;9.078;2022-08-25T09:58:55;31.80;90.10
2300;DHT22;1158;48.750;9.078;2022-08-25T10:01:26;31.90;90.60
2300;DHT22;1158;48.750;9.078;2022-08-25T10:03:55;31.80;91.40
2300;DHT22;1158;48.750;9.078;2022-08-25T10:06:23;32.10;90.90
2300;DHT22;1158;48.750;9.078;2022-08-25T10:08:55;31.00;91.20
2300;DHT22;1158;48.750;9.078;2022-08-25T10:11:32;29.60;92.30
2300;DHT22;1158;48.750;9.078;2022-08-25T10:14:01;29.90;92.90
2300;DHT22;1158;48.750;9.078;2022-08-25T10:16:31;31.00;92.10
2300;DHT22;1158;48.750;9.078;2022-08-25T10:19:06;31.60;91.40
2300;DHT22;1158;48.750;9.078;2022-08-25T10:21:33;31.90;90.10
2300;DHT22;1158;48.750;9.078;2022-08-25T10:24:00;31.30;91.00
2300;DHT22;1158;48.750;9.078;2022-08-25T10:26:38;32.10;90.60
2300;DHT22;1158;48.750;9.078;2022-08-25T10:29:18;32.50;89.80
2300;DHT22;1158;48.750;9.078;2022-08-25T10:31:55;32.10;90.60
2300;DHT22;1158;48.750;9.078;2022-08-25T10:34:32;31.90;90.60
2300;DHT22;1158;48.750;9.078;2022-08-25T10:37:08;31.70;88.40
2300;DHT22;1158;48.750;9.078;2022-08-25T10:39:39;32.10;89.30
2300;DHT22;1158;48.750;9.078;2022-08-25T10:42:26;32.60;88.70
2300;DHT22;1158;48.750;9.078;2022-08-25T10:45:12;32.50;87.60
2300;DHT22;1158;48.750;9.078;2022-08-25T10:48:15;32.40;89.10
2300;DHT22;1158;48.750;9.078;2022-08-25T10:50:46;31.90;89.80
2300;DHT22;1158;48.750;9.078;2022-08-25T10:53:22;32.10;90.40
2300;DHT22;1158;48.750;9.078;2022-08-25T10:56:02;32.30;90.40
2300;DHT22;1158;48.750;9.078;2022-08-25T11:01:39;33.50;88.30
2300;DHT22;1158;48.750;9.078;2022-08-25T11:04:13;32.80;86.80
2300;DHT22;1158;48.750;9.078;2022-08-25T11:06:43;32.60;86.60
2300;DHT22;1158;48.750;9.078;2022-08-25T11:09:20;32.80;85.10
2300;DHT22;1158;48.750;9.078;2022-08-25T11:11:54;33.20;84.10
2300;DHT22;1158;48.750;9.078;2022-08-25T11:14:26;32.40;85.80
2300;DHT22;1158;48.750;9.078;2022-08-25T11:16:59;32.50;85.20
2300;DHT22;1158;48.750;9.078;2022-08-25T11:19:32;33.40;82.20
2300;DHT22;1158;48.750;9.078;2022-08-25T11:22:06;33.20;81.90
2300;DHT22;1158;48.750;9.078;2022-08-25T11:24:45;32.60;82.50
2300;DHT22;1158;48.750;9.078;2022-08-25T11:27:17;33.20;81.40
2300;DHT22;1158;48.750;9.078;2022-08-25T11:29:54;33.00;83.40
2300;DHT22;1158;48.750;9.078;2022-08-25T11:32:23;32.70;82.30
2300;DHT22;1158;48.750;9.078;2022-08-25T11:34:52;33.00;81.30
2300;DHT22;1158;48.750;9.078;2022-08-25T11:37:22;33.10;81.90
2300;DHT22;1158;48.750;9.078;2022-08-25T11:40:27;32.60;82.90
2300;DHT22;1158;48.750;9.078;2022-08-25T11:43:04;33.10;80.10
2300;DHT22;1158;48.750;9.078;2022-08-25T11:45:45;33.00;82.80
2300;DHT22;1158;48.750;9.078;2022-08-25T11:48:20;32.60;83.80
2300;DHT22;1158;48.750;9.078;2022-08-25T11:51:10;32.10;84.90
2300;DHT22;1158;48.750;9.078;2022-08-25T11:53:39;31.90;85.60
2300;DHT22;1158;48.750;9.078;2022-08-25T11:56:08;31.20;85.20
2300;DHT22;1158;48.750;9.078;2022-08-25T11:58:43;31.80;84.10
2300;DHT22;1158;48.750;9.078;2022-08-25T12:04:11;32.50;82.50
2300;DHT22;1158;48.750;9.078;2022-08-25T12:07:17;34.00;80.20
2300;DHT22;1158;48.750;9.078;2022-08-25T12:12:59;34.30;78.00
2300;DHT22;1158;48.750;9.078;2022-08-25T12:15:31;33.70;77.80
2300;DHT22;1158;48.750;9.078;2022-08-25T12:18:10;33.50;79.40
2300;DHT22;1158;48.750;9.078;2022-08-25T12:21:10;33.80;78.10
2300;DHT22;1158;48.750;9.078;2022-08-25T12:23:40;33.80;79.30
2300;DHT22;1158;48.750;9.078;2022-08-25T12:26:13;33.90;77.00
2300;DHT22;1158;48.750;9.078;2022-08-25T12:28:50;33.70;76.60
2300;DHT22;1158;48.750;9.078;2022-08-25T12:31:24;33.60;78.60
2300;DHT22;1158;48.750;9.078;2022-08-25T12:34:06;33.80;76.10
2300;DHT22;1158;48.750;9.078;2022-08-25T12:36:38;33.50;76.40
2300;DHT22;1158;48.750;9.078;2022-08-25T12:39:17;33.90;74.90
2300;DHT22;1158;48.750;9.078;2022-08-25T12:41:54;34.30;74.90
2300;DHT22;1158;48.750;9.078;2022-08-25T12:44:39;34.40;74.70
2300;DHT22;1158;48.750;9.078;2022-08-25T12:47:12;34.90;75.00
2300;DHT22;1158;48.750;9.078;2022-08-25T12:49:39;35.20;74.20
2300;DHT22;1158;48.750;9.078;2022-08-25T12:52:10;35.30;75.00
2300;DHT22;1158;48.750;9.078;2022-08-25T12:54:45;34.90;75.70
2300;DHT22;1158;48.750;9.078;2022-08-25T12:57:36;35.60;74.00
2300;DHT22;1158;48.750;9.078;2022-08-25T13:00:11;36.20;71.60
2300;DHT22;1158;48.750;9.078;2022-08-25T13:03:12;36.70;70.60
2300;DHT22;1158;48.750;9.078;2022-08-25T13:06:03;37.00;69.40
2300;DHT22;1158;48.750;9.078;2022-08-25T13:08:45;36.20;70.00
2300;DHT22;1158;48.750;9.078;2022-08-25T13:11:26;36.10;70.50
2300;DHT22;1158;48.750;9.078;2022-08-25T13:14:00;36.10;69.20
2300;DHT22;1158;48.750;9.078;2022-08-25T13:16:30;35.50;70.60
2300;DHT22;1158;48.750;9.078;2022-08-25T13:19:01;34.50;71.50
2300;DHT22;1158;48.750;9.078;2022-08-25T13:21:32;34.20;72.00
2300;DHT22;1158;48.750;9.078;2022-08-25T13:24:00;34.90;71.90
2300;DHT22;1158;48.750;9.078;2022-08-25T13:26:31;35.40;71.20
2300;DHT22;1158;48.750;9.078;2022-08-25T13:29:00;35.60;70.30
2300;DHT22;1158;48.750;9.078;2022-08-25T13:31:28;36.20;69.80
2300;DHT22;1158;48.750;9.078;2022-08-25T13:33:57;36.30;69.10
2300;DHT22;1158;48.750;9.078;2022-08-25T13:36:25;36.40;68.40
2300;DHT22;1158;48.750;9.078;2022-08-25T13:39:12;36.80;67.10
2300;DHT22;1158;48.750;9.078;2022-08-25T13:41:46;37.50;65.70
2300;DHT22;1158;48.750;9.078;2022-08-25T13:44:14;37.50;65.00
2300;DHT22;1158;48.750;9.078;2022-08-25T13:46:41;37.80;65.20
2300;DHT22;1158;48.750;9.078;2022-08-25T13:49:08;37.20;65.50
2300;DHT22;1158;48.750;9.078;2022-08-25T13:51:36;37.50;65.10
2300;DHT22;1158;48.750;9.078;2022-08-25T13:54:05;37.00;66.80
2300;DHT22;1158;48.750;9.078;2022-08-25T13:56:35;36.40;66.90
2300;DHT22;1158;48.750;9.078;2022-08-25T13:59:05;35.30;69.40
2300;DHT22;1158;48.750;9.078;2022-08-25T14:01:43;33.70;70.90
2300;DHT22;1158;48.750;9.078;2022-08-25T14:04:26;32.30;74.10
2300;DHT22;1158;48.750;9.078;2022-08-25T14:07:12;31.40;75.70
2300;DHT22;1158;48.750;9.078;2022-08-25T14:09:44;31.30;77.20
2300;DHT22;1158;48.750;9.078;2022-08-25T14:12:26;32.80;74.20
2300;DHT22;1158;48.750;9.078;2022-08-25T14:15:01;34.50;71.50
2300;DHT22;1158;48.750;9.078;2022-08-25T14:17:29;35.40;69.30
2300;DHT22;1158;48.750;9.078;2022-08-25T14:19:56;35.80;66.80
2300;DHT22;1158;48.750;9.078;2022-08-25T14:22:23;35.80;67.50
2300;DHT22;1158;48.750;9.078;2022-08-25T14:24:52;36.30;66.30
2300;DHT22;1158;48.750;9.078;2022-08-25T14:27:19;36.50;67.40
2300;DHT22;1158;48.750;9.078;2022-08-25T14:29:46;37.10;66.40
2300;DHT22;1158;48.750;9.078;2022-08-25T14:32:14;38.00;64.60
2300;DHT22;1158;48.750;9.078;2022-08-25T14:34:42;38.00;63.80
2300;DHT22;1158;48.750;9.078;2022-08-25T14:37:12;38.70;62.50
2300;DHT22;1158;48.750;9.078;2022-08-25T14:39:39;37.50;65.30
2300;DHT22;1158;48.750;9.078;2022-08-25T14:42:06;37.70;63.70
2300;DHT22;1158;48.750;9.078;2022-08-25T14:44:33;37.20;64.10
2300;DHT22;1158;48.750;9.078;2022-08-25T14:47:00;37.20;64.00
2300;DHT22;1158;48.750;9.078;2022-08-25T14:49:31;37.80;63.40
2300;DHT22;1158;48.750;9.078;2022-08-25T14:52:05;37.60;64.60
2300;DHT22;1158;48.750;9.078;2022-08-25T14:54:32;37.30;66.00
2300;DHT22;1158;48.750;9.078;2022-08-25T14:56:59;36.50;65.90
2300;DHT22;1158;48.750;9.078;2022-08-25T14:59:26;36.30;65.40
2300;DHT22;1158;48.750;9.078;2022-08-25T15:01:53;36.20;66.00
2300;DHT22;1158;48.750;9.078;2022-08-25T15:04:22;36.60;65.10
2300;DHT22;1158;48.750;9.078;2022-08-25T15:06:54;36.60;66.30
2300;DHT22;1158;48.750;9.078;2022-08-25T15:09:21;36.20;66.40
2300;DHT22;1158;48.750;9.078;2022-08-25T15:11:49;35.60;66.50
2300;DHT22;1158;48.750;9.078;2022-08-25T15:14:18;34.60;68.00
2300;DHT22;1158;48.750;9.078;2022-08-25T15:16:48;34.30;69.20
2300;DHT22;1158;48.750;9.078;2022-08-25T15:19:17;34.00;68.70
2300;DHT22;1158;48.750;9.078;2022-08-25T15:21:45;33.10;70.30
2300;DHT22;1158;48.750;9.078;2022-08-25T15:24:14;33.50;70.70
2300;DHT22;1158;48.750;9.078;2022-08-25T15:26:45;34.40;68.60
2300;DHT22;1158;48.750;9.078;2022-08-25T15:29:13;34.30;68.50
2300;DHT22;1158;48.750;9.078;2022-08-25T15:31:39;34.90;68.50
2300;DHT22;1158;48.750;9.078;2022-08-25T15:34:06;35.90;67.00
2300;DHT22;1158;48.750;9.078;2022-08-25T15:36:34;35.40;66.40
2300;DHT22;1158;48.750;9.078;2022-08-25T15:39:03;35.20;67.30
2300;DHT22;1158;48.750;9.078;2022-08-25T15:41:31;35.20;67.40
2300;DHT22;1158;48.750;9.078;2022-08-25T15:43:58;35.30;67.20
2300;DHT22;1158;48.750;9.078;2022-08-25T15:46:26;36.20;66.50
2300;DHT22;1158;48.750;9.078;2022-08-25T15:48:54;36.70;64.40
2300;DHT22;1158;48.750;9.078;2022-08-25T15:51:21;35.90;65.50
2300;DHT22;1158;48.750;9.078;2022-08-25T15:53:48;35.60;65.30
2300;DHT22;1158;48.750;9.078;2022-08-25T15:56:15;36.40;64.80
2300;DHT22;1158;48.750;9.078;2022-08-25T15:58:45;37.10;63.20
2300;DHT22;1158;48.750;9.078;2022-08-25T16:01:13;36.50;63.40
2300;DHT22;1158;48.750;9.078;2022-08-25T16:03:40;36.20;63.80
2300;DHT22;1158;48.750;9.078;2022-08-25T16:06:07;36.50;64.30
2300;DHT22;1158;48.750;9.078;2022-08-25T16:08:34;37.30;63.80
2300;DHT22;1158;48.750;9.078;2022-08-25T16:11:03;37.40;65.00
2300;DHT22;1158;48.750;9.078;2022-08-25T16:13:30;36.60;66.10
2300;DHT22;1158;48.750;9.078;2022-08-25T16:15:59;36.10;66.10
2300;DHT22;1158;48.750;9.078;2022-08-25T16:18:25;36.30;66.40
2300;DHT22;1158;48.750;9.078;2022-08-25T16:20:52;35.80;67.30
2300;DHT22;1158;48.750;9.078;2022-08-25T16:23:20;35.30;67.10
2300;DHT22;1158;48.750;9.078;2022-08-25T16:25:47;33.30;69.60
2300;DHT22;1158;48.750;9.078;2022-08-25T16:28:15;32.70;71.00
2300;DHT22;1158;48.750;9.078;2022-08-25T16:30:44;32.00;73.20